Time;durP1;ratioP1;P1;durP2;ratioP2;P2;SDS_P1;SDS_P2;PMS_P1;PMS_P2;Temp;Humidity;BMP_temperature;BMP_pressure;BME280_temperature;BME280_humidity;BME280_pressure;Samples;Min_cycle;Max_cycle;Signal;HPM_P1;HPM_P2
2023/07/02 00:00:59;;;;;;;;;37.67;32.33;;;;;19.67;53.88;100566.28;5097749;27;45503;-80
2023/07/02 00:03:24;;;;;;;;;42.67;30.67;;;;;19.58;53.95;100551.81;5095815;27;46225;-80
2023/07/02 00:05:50;;;;;;;;;39.67;33.33;;;;;19.49;54.15;100536.44;5097114;27;45195;-80
2023/07/02 00:08:16;;;;;;;;;41.67;33.67;;;;;19.43;54.13;100537.03;5097035;27;45293;-81
2023/07/02 00:10:43;;;;;;;;;33.67;31.00;;;;;19.55;54.06;100556.66;5097518;27;45368;-81
2023/07/02 00:13:08;;;;;;;;;39.00;33.00;;;;;19.35;54.40;100536.88;5096485;27;46122;-80
2023/07/02 00:15:35;;;;;;;;;30.67;29.67;;;;;19.30;54.46;100542.72;5095313;27;45388;-79
2023/07/02 00:18:00;;;;;;;;;34.33;32.00;;;;;19.10;54.83;100538.31;5096721;27;45451;-80
2023/07/02 00:20:25;;;;;;;;;35.67;31.00;;;;;18.99;55.70;100541.16;5097118;27;45540;-80
2023/07/02 00:22:51;;;;;;;;;39.33;30.67;;;;;19.17;55.70;100574.50;5096589;27;46501;-79
2023/07/02 00:25:16;;;;;;;;;38.00;33.00;;;;;19.15;55.80;100576.50;5095146;27;45600;-80
2023/07/02 00:27:42;;;;;;;;;35.67;31.00;;;;;19.06;55.67;100561.16;5096051;27;45515;-80
2023/07/02 00:30:08;;;;;;;;;45.67;33.67;;;;;19.00;55.90;100561.72;5097072;27;45332;-79
2023/07/02 00:32:33;;;;;;;;;38.33;31.33;;;;;19.05;55.63;100575.66;5096649;27;45258;-79
2023/07/02 00:34:59;;;;;;;;;37.00;31.67;;;;;18.99;56.37;100577.03;5096248;27;45223;-79
2023/07/02 00:37:24;;;;;;;;;42.00;32.00;;;;;18.92;56.31;100564.28;5096137;27;53129;-79
2023/07/02 00:39:49;;;;;;;;;37.33;32.33;;;;;18.80;57.21;100567.09;5096577;27;45650;-80
2023/07/02 00:42:16;;;;;;;;;41.00;32.33;;;;;18.45;57.40;100511.00;5096591;27;46128;-79
2023/07/02 00:44:42;;;;;;;;;39.00;32.33;;;;;18.60;56.93;100546.47;5095880;27;45346;-80
2023/07/02 00:47:11;;;;;;;;;41.33;30.67;;;;;18.56;57.28;100545.88;5095582;27;45256;-79
2023/07/02 00:49:37;;;;;;;;;34.67;31.33;;;;;18.60;57.51;100561.75;5096570;27;45587;-79
2023/07/02 00:52:03;;;;;;;;;40.00;32.00;;;;;18.60;57.63;100564.47;5095649;27;45538;-79
2023/07/02 00:54:29;;;;;;;;;41.00;33.00;;;;;18.40;57.86;100547.41;5099669;27;45349;-79
2023/07/02 00:56:55;;;;;;;;;33.00;30.33;;;;;18.24;57.90;100521.88;5100023;27;45249;-81
2023/07/02 00:59:20;;;;;;;;;43.00;33.67;;;;;18.14;57.69;100510.22;5099725;27;45493;-80
2023/07/02 01:01:49;;;;;;;;;36.33;31.67;;;;;18.46;58.08;100574.63;5099956;27;45412;-80
2023/07/02 01:04:18;;;;;;;;;37.67;31.67;;;;;18.34;58.36;100542.56;5099646;27;45406;-80
2023/07/02 01:06:44;;;;;;;;;40.33;31.33;;;;;18.33;58.19;100567.78;5116004;27;45428;-80
2023/07/02 01:09:10;;;;;;;;;38.67;31.33;;;;;18.26;58.47;100565.66;5100273;27;45530;-80
2023/07/02 01:11:56;;;;;;;;;40.33;32.33;;;;;18.33;58.78;100575.84;5099305;27;45251;-80
2023/07/02 01:14:53;;;;;;;;;38.33;32.33;;;;;18.31;58.96;100576.00;5099838;27;45349;-80
2023/07/02 01:17:19;;;;;;;;;39.33;30.00;;;;;18.28;59.09;100587.91;5099593;27;45460;-80
2023/07/02 01:19:53;;;;;;;;;44.67;34.67;;;;;18.25;59.44;100588.19;5116139;27;45582;-80
2023/07/02 01:22:20;;;;;;;;;43.67;35.00;;;;;18.19;59.63;100593.22;5100217;27;46185;-78
2023/07/02 01:24:47;;;;;;;;;37.33;31.33;;;;;18.15;60.07;100592.66;5099733;27;45487;-79
2023/07/02 01:27:14;;;;;;;;;35.00;30.33;;;;;18.13;60.10;100586.56;5100914;27;45416;-78
2023/07/02 01:29:40;;;;;;;;;30.67;29.00;;;;;18.03;59.76;100580.28;5098534;27;45536;-79
2023/07/02 01:32:06;;;;;;;;;35.00;30.00;;;;;18.06;59.72;100582.69;5099446;27;46199;-78
2023/07/02 01:34:32;;;;;;;;;41.67;33.33;;;;;18.07;60.32;100587.09;5097876;27;45397;-78
2023/07/02 01:36:57;;;;;;;;;40.00;30.00;;;;;18.04;60.62;100595.44;5097825;27;45580;-79
2023/07/02 01:39:22;;;;;;;;;36.33;30.00;;;;;17.82;60.61;100564.16;5098278;27;57042;-79
2023/07/02 01:41:52;;;;;;;;;40.00;32.67;;;;;17.85;60.12;100580.03;5099174;27;46111;-80
2023/07/02 01:44:18;;;;;;;;;38.67;32.67;;;;;17.95;60.71;100588.16;5098922;27;45543;-80
2023/07/02 01:46:44;;;;;;;;;36.33;33.00;;;;;17.66;60.68;100536.84;5099521;27;45417;-80
2023/07/02 01:49:10;;;;;;;;;32.67;29.00;;;;;17.63;61.00;100564.88;5099246;27;45639;-80
2023/07/02 01:51:35;;;;;;;;;36.33;31.67;;;;;17.80;60.71;100578.72;5097612;27;46372;-78
2023/07/02 01:54:01;;;;;;;;;41.67;33.67;;;;;17.57;61.10;100543.84;5098764;27;45278;-80
2023/07/02 01:56:27;;;;;;;;;31.33;30.33;;;;;17.78;61.50;100578.00;5099175;27;45246;-78
2023/07/02 01:58:53;;;;;;;;;32.33;27.00;;;;;17.85;61.19;100589.97;5097728;27;45259;-79
2023/07/02 02:01:18;;;;;;;;;34.00;32.33;;;;;17.63;61.69;100574.78;5098350;27;45632;-78
2023/07/02 02:03:44;;;;;;;;;37.33;31.00;;;;;17.63;61.10;100572.06;5098233;27;45424;-78
2023/07/02 02:06:09;;;;;;;;;36.67;30.00;;;;;17.58;61.71;100572.50;5097796;27;45352;-79
2023/07/02 02:08:35;;;;;;;;;36.67;32.33;;;;;17.77;61.62;100595.13;5098834;27;45648;-79
2023/07/02 02:11:00;;;;;;;;;38.67;32.00;;;;;17.69;62.34;100593.94;5098654;27;46333;-80
2023/07/02 02:13:26;;;;;;;;;40.00;29.33;;;;;17.42;62.10;100544.31;5114749;27;46094;-80
2023/07/02 02:15:51;;;;;;;;;36.00;28.67;;;;;17.71;62.30;100590.25;5098255;27;45435;-79
2023/07/02 02:18:16;;;;;;;;;40.33;31.67;;;;;17.59;62.28;100586.78;5098444;27;45582;-78
2023/07/02 02:20:42;;;;;;;;;33.00;28.00;;;;;17.46;62.82;100552.03;5098905;27;46326;-80
2023/07/02 02:23:07;;;;;;;;;44.67;29.67;;;;;17.71;62.32;100588.47;5098643;27;45389;-80
2023/07/02 02:25:33;;;;;;;;;35.67;31.00;;;;;17.63;62.26;100572.94;5096232;27;45446;-78
2023/07/02 02:27:58;;;;;;;;;38.67;30.33;;;;;17.76;62.55;100599.66;5098432;27;45423;-81
2023/07/02 02:30:23;;;;;;;;;27.67;27.67;;;;;17.72;62.36;100592.00;5098267;27;45985;-78
2023/07/02 02:32:49;;;;;;;;;28.33;25.67;;;;;17.77;62.64;100603.19;5097476;27;45474;-78
2023/07/02 02:35:14;;;;;;;;;29.00;26.67;;;;;17.69;62.68;100591.25;5098614;27;45605;-78
2023/07/02 02:37:40;;;;;;;;;29.00;26.33;;;;;17.71;62.18;100598.34;5098367;27;45368;-79
2023/07/02 02:40:08;;;;;;;;;34.33;30.00;;;;;17.57;62.92;100586.88;5098223;27;45389;-79
2023/07/02 02:42:34;;;;;;;;;35.33;31.33;;;;;17.57;63.19;100588.72;5096794;27;45362;-80
2023/07/02 02:44:59;;;;;;;;;30.67;26.67;;;;;17.39;63.01;100566.97;5097930;27;45748;-78
2023/07/02 02:47:24;;;;;;;;;29.33;27.00;;;;;17.35;63.12;100565.53;5098465;27;45633;-79
2023/07/02 02:49:50;;;;;;;;;32.67;30.67;;;;;17.48;63.40;100603.81;5098161;27;45446;-79
2023/07/02 02:52:16;;;;;;;;;28.33;25.00;;;;;17.36;63.71;100597.66;5098399;27;45380;-78
2023/07/02 02:54:41;;;;;;;;;33.00;25.33;;;;;17.39;63.69;100604.59;5096290;27;45441;-79
2023/07/02 02:57:06;;;;;;;;;34.33;31.00;;;;;17.30;64.05;100591.91;5098379;27;45574;-80
2023/07/02 02:59:32;;;;;;;;;29.33;27.67;;;;;17.22;64.34;100587.19;5097949;27;46190;-80
2023/07/02 03:01:57;;;;;;;;;31.33;28.33;;;;;17.35;64.17;100605.84;5097310;27;45503;-79
2023/07/02 03:04:25;;;;;;;;;26.00;25.33;;;;;17.26;63.79;100585.94;5097386;27;51205;-78
2023/07/02 03:06:52;;;;;;;;;26.00;24.67;;;;;17.28;64.17;100618.06;5098352;27;45239;-78
2023/07/02 03:09:19;;;;;;;;;30.67;25.67;;;;;17.24;64.85;100601.34;5098023;27;45345;-79
2023/07/02 03:11:46;;;;;;;;;30.00;26.67;;;;;17.16;64.35;100584.16;5096648;27;45469;-78
2023/07/02 03:14:11;;;;;;;;;28.33;21.33;;;;;17.20;64.06;100602.59;5096979;27;45333;-79
2023/07/02 03:16:37;;;;;;;;;35.33;31.00;;;;;17.10;64.45;100574.78;5113423;27;45504;-80
2023/07/02 03:19:02;;;;;;;;;36.33;28.00;;;;;17.22;64.40;100597.09;5097646;27;45439;-78
2023/07/02 03:21:29;;;;;;;;;32.33;28.67;;;;;17.21;64.76;100603.47;5097642;27;45359;-80
2023/07/02 03:23:55;;;;;;;;;33.33;27.00;;;;;17.19;65.01;100613.47;5097684;27;45390;-79
2023/07/02 03:26:21;;;;;;;;;32.67;29.33;;;;;17.01;65.43;100603.25;5096720;27;45574;-80
2023/07/02 03:28:47;;;;;;;;;30.67;23.00;;;;;16.78;65.13;100566.69;5096162;27;45822;-79
2023/07/02 03:31:12;;;;;;;;;29.67;24.67;;;;;16.96;65.00;100592.06;5097238;27;45429;-80
2023/07/02 03:33:37;;;;;;;;;29.67;26.00;;;;;17.00;65.22;100606.94;5097428;27;45486;-78
2023/07/02 03:36:03;;;;;;;;;29.00;26.33;;;;;16.98;65.23;100608.91;5097849;27;45352;-79
2023/07/02 03:38:28;;;;;;;;;24.67;23.67;;;;;16.95;64.93;100595.72;5096164;27;46296;-79
2023/07/02 03:40:54;;;;;;;;;28.67;24.67;;;;;17.08;65.03;100622.44;5096208;27;50127;-80
2023/07/02 03:43:19;;;;;;;;;32.67;26.33;;;;;16.95;65.55;100617.22;5096462;27;45364;-79
2023/07/02 03:45:44;;;;;;;;;30.33;25.67;;;;;16.98;65.59;100630.41;5096944;27;45601;-79
2023/07/02 03:48:10;;;;;;;;;32.67;28.67;;;;;16.86;66.11;100634.09;5097265;27;46033;-77
2023/07/02 03:50:35;;;;;;;;;27.67;24.00;;;;;16.95;65.75;100649.47;5096987;27;45433;-78
2023/07/02 03:53:00;;;;;;;;;36.33;27.00;;;;;16.92;65.31;100651.50;5097363;27;45338;-79
2023/07/02 03:55:26;;;;;;;;;29.00;25.33;;;;;16.79;65.84;100622.97;5097267;27;45401;-79
2023/07/02 03:57:51;;;;;;;;;30.33;25.00;;;;;16.70;65.87;100601.41;5096024;27;46117;-78
2023/07/02 04:00:16;;;;;;;;;28.33;25.00;;;;;16.79;66.05;100628.34;5096920;27;45482;-79
2023/07/02 04:02:42;;;;;;;;;30.00;24.33;;;;;16.92;65.54;100655.06;5097307;27;45356;-80
2023/07/02 04:05:07;;;;;;;;;36.00;26.67;;;;;16.85;66.15;100647.66;5097104;27;45282;-79
2023/07/02 04:07:33;;;;;;;;;28.67;24.67;;;;;16.85;66.21;100648.50;5095477;27;47914;-79
2023/07/02 04:09:59;;;;;;;;;37.00;28.00;;;;;16.72;65.97;100620.94;5097115;27;45478;-80
2023/07/02 04:12:24;;;;;;;;;29.67;25.67;;;;;16.92;66.12;100655.06;5096939;27;45286;-79
2023/07/02 04:14:49;;;;;;;;;27.00;24.67;;;;;16.69;66.34;100610.44;5095498;27;45689;-79
2023/07/02 04:17:15;;;;;;;;;31.00;24.33;;;;;16.83;66.51;100639.72;5096466;27;46211;-78
2023/07/02 04:19:40;;;;;;;;;29.00;22.67;;;;;16.82;66.30;100635.31;5097022;27;45302;-79
2023/07/02 04:22:06;;;;;;;;;31.33;28.00;;;;;16.88;66.06;100653.59;5096576;27;45728;-79
2023/07/02 04:24:31;;;;;;;;;32.00;24.00;;;;;16.90;66.13;100648.97;5095594;27;45426;-79
2023/07/02 04:26:56;;;;;;;;;32.67;26.00;;;;;16.80;66.44;100643.50;5096484;27;45989;-79
2023/07/02 04:29:22;;;;;;;;;29.67;23.00;;;;;16.96;66.26;100653.84;5096900;27;45467;-79
2023/07/02 04:31:47;;;;;;;;;24.33;21.00;;;;;16.89;65.85;100649.09;5096041;27;45467;-80
2023/07/02 04:34:12;;;;;;;;;32.00;23.67;;;;;16.99;65.94;100661.66;5096736;27;45230;-78
2023/07/02 04:36:38;;;;;;;;;28.33;23.67;;;;;17.03;65.96;100673.84;5096516;27;46163;-79
2023/07/02 04:39:03;;;;;;;;;33.33;25.33;;;;;17.09;66.04;100672.50;5096416;27;45258;-79
2023/07/02 04:41:29;;;;;;;;;27.67;24.33;;;;;17.13;65.74;100662.34;5096272;27;45524;-79
2023/07/02 04:43:55;;;;;;;;;27.00;21.00;;;;;17.14;65.40;100653.31;5095328;27;45568;-78
2023/07/02 04:46:20;;;;;;;;;29.33;23.67;;;;;17.24;65.30;100663.19;5096784;27;46235;-79
2023/07/02 04:48:46;;;;;;;;;25.67;22.67;;;;;17.30;65.36;100670.72;5096152;27;45440;-80
2023/07/02 04:51:11;;;;;;;;;33.33;25.33;;;;;17.42;64.94;100681.44;5096636;27;45927;-79
2023/07/02 04:53:37;;;;;;;;;28.67;22.67;;;;;17.28;65.00;100661.09;5095168;27;45568;-80
2023/07/02 04:56:03;;;;;;;;;27.67;24.00;;;;;17.38;64.92;100678.16;5074515;27;47352;-79
2023/07/02 04:58:28;;;;;;;;;31.33;24.00;;;;;17.20;65.05;100650.13;5078487;27;45442;-78
2023/07/02 05:00:53;;;;;;;;;22.67;19.67;;;;;17.31;65.34;100675.13;5094640;27;45410;-79
2023/07/02 05:03:19;;;;;;;;;39.00;25.67;;;;;17.32;65.02;100678.69;5093549;27;45531;-79
2023/07/02 05:05:44;;;;;;;;;30.33;24.00;;;;;17.33;65.62;100680.38;5095856;27;45539;-79
2023/07/02 05:08:10;;;;;;;;;29.00;23.33;;;;;17.29;65.34;100674.38;5095895;27;45194;-78
2023/07/02 05:10:35;;;;;;;;;33.33;23.00;;;;;17.30;65.50;100670.72;5096091;27;45319;-79
2023/07/02 05:13:01;;;;;;;;;24.67;20.33;;;;;17.49;65.10;100679.97;5095030;27;45825;-79
2023/07/02 05:15:26;;;;;;;;;27.00;22.67;;;;;17.54;64.57;100666.97;5095707;27;45291;-79
2023/07/02 05:17:51;;;;;;;;;24.00;21.00;;;;;17.85;63.87;100676.91;5096193;27;45290;-79
2023/07/02 05:20:17;;;;;;;;;31.33;26.33;;;;;18.07;63.43;100680.41;5095149;27;57212;-79
2023/07/02 05:22:42;;;;;;;;;21.67;20.67;;;;;18.17;62.84;100666.03;5112446;27;45359;-79
2023/07/02 05:25:08;;;;;;;;;25.00;22.00;;;;;18.39;62.31;100681.19;5095135;27;45433;-79
2023/07/02 05:27:34;;;;;;;;;27.67;23.00;;;;;18.47;61.87;100654.44;5094796;27;45520;-77
2023/07/02 05:29:59;;;;;;;;;16.33;15.67;;;;;18.65;61.14;100676.25;5096314;27;45277;-79
2023/07/02 05:32:24;;;;;;;;;24.67;23.67;;;;;18.73;60.96;100679.09;5097226;27;45773;-80
2023/07/02 05:34:50;;;;;;;;;25.33;24.00;;;;;18.52;60.85;100654.91;5095620;27;45302;-79
2023/07/02 05:37:15;;;;;;;;;26.00;19.00;;;;;18.61;61.16;100687.38;5095935;27;45412;-80
2023/07/02 05:39:41;;;;;;;;;24.33;24.00;;;;;18.57;61.07;100686.78;5098850;27;45548;-80
2023/07/02 05:42:06;;;;;;;;;24.33;22.33;;;;;18.30;61.43;100654.22;5099577;27;45470;-79
2023/07/02 05:44:32;;;;;;;;;26.00;20.33;;;;;18.51;61.25;100692.72;5098670;27;46110;-80
2023/07/02 05:46:57;;;;;;;;;22.33;18.67;;;;;18.39;61.21;100685.72;5099561;27;45656;-79
2023/07/02 05:49:22;;;;;;;;;28.67;21.33;;;;;18.44;61.65;100699.63;5099296;27;45355;-80
2023/07/02 05:51:48;;;;;;;;;28.00;23.00;;;;;18.40;61.49;100687.44;5098972;27;50023;-78
2023/07/02 05:54:13;;;;;;;;;26.67;23.00;;;;;18.50;61.42;100699.13;5098658;27;46145;-80
2023/07/02 05:56:39;;;;;;;;;31.00;20.00;;;;;18.38;61.59;100684.03;5097845;27;45321;-79
2023/07/02 05:59:04;;;;;;;;;22.67;20.33;;;;;18.51;61.56;100700.81;5096714;27;45970;-79
2023/07/02 06:01:29;;;;;;;;;31.00;22.00;;;;;18.57;61.65;100705.66;5099941;27;45847;-79
2023/07/02 06:03:55;;;;;;;;;28.33;23.33;;;;;18.36;61.40;100673.38;5099059;27;46034;-80
2023/07/02 06:06:24;;;;;;;;;24.67;22.00;;;;;18.50;61.54;100705.34;5099071;27;45487;-79
2023/07/02 06:08:50;;;;;;;;;26.00;22.00;;;;;18.54;61.84;100705.94;5097779;27;45501;-80
2023/07/02 06:11:15;;;;;;;;;28.00;22.00;;;;;18.53;61.60;100709.59;5099156;27;45610;-79
2023/07/02 06:13:41;;;;;;;;;23.33;20.67;;;;;18.51;61.39;100703.50;5098385;27;46172;-79
2023/07/02 06:16:06;;;;;;;;;21.67;21.33;;;;;18.64;61.13;100711.41;5097556;27;45524;-77
2023/07/02 06:18:32;;;;;;;;;25.33;22.00;;;;;18.70;61.04;100709.00;5098923;27;45343;-79
2023/07/02 06:20:57;;;;;;;;;23.00;21.33;;;;;18.71;61.10;100717.94;5099472;27;45407;-78
2023/07/02 06:23:22;;;;;;;;;23.00;23.00;;;;;18.73;61.10;100710.56;5098253;27;48208;-79
2023/07/02 06:25:48;;;;;;;;;26.67;22.00;;;;;18.80;60.71;100712.59;5098498;27;45299;-79
2023/07/02 06:28:13;;;;;;;;;20.33;19.00;;;;;18.62;60.30;100670.22;5114620;27;45475;-79
2023/07/02 06:30:39;;;;;;;;;27.67;27.00;;;;;18.97;60.31;100732.66;5098611;27;45512;-80
2023/07/02 06:33:04;;;;;;;;;24.00;21.00;;;;;18.92;60.44;100717.88;5101857;27;48048;-80
2023/07/02 06:35:29;;;;;;;;;28.00;21.33;;;;;19.08;60.20;100721.75;5093295;27;45541;-78
2023/07/02 06:37:55;;;;;;;;;29.00;24.33;;;;;19.02;59.78;100716.94;5105932;27;45649;-79
2023/07/02 06:40:22;;;;;;;;;31.00;20.67;;;;;19.15;59.91;100735.56;5098340;27;45393;-81
2023/07/02 06:42:47;;;;;;;;;24.00;24.00;;;;;19.14;59.88;100726.63;5090270;27;45448;-78
2023/07/02 06:45:13;;;;;;;;;31.00;24.33;;;;;19.24;59.92;100741.94;5118089;27;45246;-77
2023/07/02 06:47:38;;;;;;;;;27.33;21.33;;;;;19.10;59.85;100727.00;5101263;27;45464;-79
2023/07/02 06:50:04;;;;;;;;;26.00;21.00;;;;;18.99;60.02;100705.56;5116792;27;45469;-79
2023/07/02 06:52:30;;;;;;;;;23.00;21.33;;;;;19.31;59.79;100749.38;5102343;27;46439;-80
2023/07/02 06:54:55;;;;;;;;;25.33;20.00;;;;;19.30;59.55;100731.47;5090170;27;45337;-81
2023/07/02 06:57:20;;;;;;;;;18.00;17.00;;;;;19.56;59.19;100748.03;5110115;27;45400;-79
2023/07/02 06:59:46;;;;;;;;;28.00;22.00;;;;;19.68;59.02;100743.34;5108679;27;45530;-81
2023/07/02 07:02:11;;;;;;;;;31.67;25.67;;;;;19.76;58.65;100738.09;5098174;27;47480;-79
2023/07/02 07:04:37;;;;;;;;;27.67;23.00;;;;;19.60;58.41;100717.06;5090201;27;45531;-82
2023/07/02 07:07:03;;;;;;;;;26.33;22.00;;;;;19.63;58.22;100710.53;5100792;27;45599;-81
2023/07/02 07:09:29;;;;;;;;;27.33;25.00;;;;;19.91;58.14;100735.81;5083136;27;45495;-81
2023/07/02 07:11:54;;;;;;;;;29.67;25.00;;;;;19.88;57.33;100704.56;5101963;27;46387;-79
2023/07/02 07:14:20;;;;;;;;;20.00;18.33;;;;;20.04;57.21;100742.63;5099754;27;45670;-78
2023/07/02 07:16:45;;;;;;;;;30.33;24.33;;;;;20.05;57.33;100754.28;5114299;27;45359;-80
2023/07/02 07:19:11;;;;;;;;;24.67;23.33;;;;;20.00;57.39;100741.22;5083629;27;45338;-79
2023/07/02 07:21:36;;;;;;;;;23.33;22.67;;;;;20.15;57.26;100748.88;5097083;27;45288;-80
2023/07/02 07:24:02;;;;;;;;;31.67;22.67;;;;;20.05;57.27;100735.38;5097451;27;45477;-80
2023/07/02 07:26:27;;;;;;;;;27.00;25.33;;;;;20.02;57.11;100723.03;5096655;27;45399;-80
2023/07/02 07:28:55;;;;;;;;;26.67;24.33;;;;;20.07;56.87;100721.75;5113810;27;45237;-82
2023/07/02 07:31:21;;;;;;;;;31.00;25.67;;;;;19.91;57.11;100693.47;5104231;27;45393;-81
2023/07/02 07:33:46;;;;;;;;;24.33;23.00;;;;;20.20;56.88;100735.81;5083242;27;45489;-80
2023/07/02 07:36:13;;;;;;;;;31.67;22.67;;;;;20.19;56.06;100690.91;5082319;27;45389;-76
2023/07/02 07:38:39;;;;;;;;;25.00;25.00;;;;;20.32;55.69;100723.84;5109873;27;45451;-80
2023/07/02 07:41:04;;;;;;;;;26.00;22.33;;;;;20.52;55.97;100757.09;5099640;27;46065;-82
2023/07/02 07:43:30;;;;;;;;;28.00;23.67;;;;;20.60;55.57;100741.88;5100918;27;45389;-82
2023/07/02 07:45:55;;;;;;;;;25.67;24.67;;;;;20.67;55.74;100755.63;5102604;27;45554;-83
2023/07/02 07:48:21;;;;;;;;;24.67;24.33;;;;;20.42;55.64;100713.88;5101586;27;45486;-83
2023/07/02 07:50:47;;;;;;;;;25.67;23.00;;;;;20.69;55.60;100758.16;5089878;27;46108;-84
2023/07/02 07:53:12;;;;;;;;;25.33;23.00;;;;;20.66;54.78;100747.66;5109401;27;45874;-81
2023/07/02 07:55:38;;;;;;;;;26.67;25.00;;;;;20.61;54.88;100759.78;5106004;27;45335;-81
2023/07/02 07:58:03;;;;;;;;;25.67;25.00;;;;;20.71;54.93;100773.28;5105570;27;45543;-86
2023/07/02 08:00:29;;;;;;;;;23.67;22.33;;;;;20.73;54.47;100737.97;5093194;27;46079;-86
2023/07/02 08:02:55;;;;;;;;;26.33;22.00;;;;;21.09;54.63;100779.50;5113108;27;45325;-86
2023/07/02 08:05:21;;;;;;;;;24.00;21.00;;;;;21.14;53.59;100764.56;5096892;27;45633;-82
2023/07/02 08:07:46;;;;;;;;;23.33;20.00;;;;;20.82;53.62;100704.63;5102690;27;45281;-90
2023/07/02 08:10:12;;;;;;;;;25.33;24.33;;;;;20.80;53.49;100701.22;5095338;27;46635;-85
2023/07/02 08:12:37;;;;;;;;;26.33;22.67;;;;;21.10;53.15;100770.41;5083867;27;45424;-89
2023/07/02 08:15:03;;;;;;;;;23.33;22.00;;;;;20.72;53.39;100720.06;5096205;27;45396;-84
2023/07/02 08:17:30;;;;;;;;;28.33;22.00;;;;;20.82;53.68;100724.41;5092785;27;45604;-85
2023/07/02 08:19:56;;;;;;;;;27.33;24.33;;;;;21.21;52.85;100770.19;5098040;27;48408;-82
2023/07/02 08:22:21;;;;;;;;;31.00;21.67;;;;;21.21;52.51;100773.75;5102438;27;45469;-87
2023/07/02 08:24:49;;;;;;;;;22.67;20.33;;;;;20.68;52.00;100703.28;5090525;27;45394;-86
2023/07/02 08:27:18;;;;;;;;;21.67;20.33;;;;;20.54;52.13;100691.09;5091276;27;45248;-86
2023/07/02 08:29:44;;;;;;;;;26.67;22.33;;;;;20.73;52.57;100706.41;5119210;27;48033;-86
2023/07/02 08:32:09;;;;;;;;;25.00;21.33;;;;;20.59;52.51;100706.88;5092129;27;45480;-80
2023/07/02 08:34:34;;;;;;;;;25.00;20.67;;;;;20.96;52.80;100770.88;5096761;27;45414;-79
2023/07/02 08:37:00;;;;;;;;;33.67;24.00;;;;;20.98;52.79;100763.50;5111763;27;45442;-79
2023/07/02 08:39:25;;;;;;;;;28.33;22.33;;;;;21.28;52.02;100784.88;5103181;27;48081;-79
2023/07/02 08:41:51;;;;;;;;;22.67;20.67;;;;;21.25;52.04;100757.25;5103562;27;45512;-78
2023/07/02 08:44:23;;;;;;;;;25.00;17.33;;;;;21.51;51.71;100777.19;5110736;27;45356;-78
2023/07/02 08:46:50;;;;;;;;;23.67;23.67;;;;;21.39;51.24;100738.69;5099872;27;45458;-78
2023/07/02 08:49:17;;;;;;;;;29.33;23.33;;;;;21.83;50.40;100757.72;5109230;27;45638;-79
2023/07/02 08:51:45;;;;;;;;;22.67;19.33;;;;;22.02;50.45;100787.38;5087003;27;45471;-77
2023/07/02 08:54:11;;;;;;;;;25.00;23.33;;;;;21.85;50.56;100757.56;5078144;27;45528;-78
2023/07/02 08:56:37;;;;;;;;;24.00;20.33;;;;;21.90;50.51;100771.50;5110176;27;45453;-79
2023/07/02 08:59:02;;;;;;;;;27.67;19.33;;;;;21.75;49.75;100763.06;5110877;27;45652;-78
2023/07/02 09:01:27;;;;;;;;;30.00;22.33;;;;;21.95;49.26;100780.84;5102019;27;45453;-79
2023/07/02 09:03:59;;;;;;;;;20.00;18.67;;;;;21.64;48.91;100728.13;5095534;27;45389;-81
2023/07/02 09:06:25;;;;;;;;;24.33;21.00;;;;;21.63;49.01;100707.47;5084942;27;45514;-85
2023/07/02 09:08:50;;;;;;;;;28.33;25.00;;;;;21.83;48.90;100760.44;5094650;27;47190;-81
2023/07/02 09:11:19;;;;;;;;;24.67;22.67;;;;;21.75;48.19;100766.63;5109055;27;45880;-81
2023/07/02 09:13:49;;;;;;;;;18.33;18.00;;;;;21.81;48.63;100769.72;5110937;27;45472;-81
2023/07/02 09:16:26;;;;;;;;;18.67;16.33;;;;;21.87;47.55;100763.66;5104526;27;45593;-80
2023/07/02 09:19:00;;;;;;;;;21.00;18.33;;;;;21.92;47.01;100764.06;5086685;27;46668;-86
2023/07/02 09:21:28;;;;;;;;;20.33;18.00;;;;;21.74;47.49;100697.22;5111082;27;45445;-81
2023/07/02 09:23:54;;;;;;;;;20.00;17.33;;;;;22.27;47.93;100758.66;5100523;27;45411;-86
2023/07/02 09:26:21;;;;;;;;;18.50;18.00;;;;;22.17;46.47;100714.56;5085305;27;45855;-81
2023/07/02 09:28:46;;;;;;;;;23.00;19.00;;;;;22.25;46.67;100717.31;5116411;27;45642;-86
2023/07/02 09:31:12;;;;;;;;;20.00;17.00;;;;;22.35;44.20;100749.72;5110192;27;45526;-83
2023/07/02 09:33:37;;;;;;;;;24.33;19.67;;;;;22.18;45.17;100737.94;5110261;27;45344;-83
2023/07/02 09:36:03;;;;;;;;;24.00;19.00;;;;;22.17;44.96;100741.66;5115654;27;45364;-84
2023/07/02 09:38:29;;;;;;;;;19.00;15.25;;;;;22.07;44.51;100724.63;5105005;27;45447;-86
2023/07/02 09:40:55;;;;;;;;;20.25;18.50;;;;;22.32;44.28;100750.06;5102649;27;45234;-82
2023/07/02 09:43:24;;;;;;;;;23.50;17.25;;;;;22.59;44.20;100763.47;5100047;27;45569;-87
2023/07/02 09:45:53;;;;;;;;;21.75;17.25;;;;;22.75;42.77;100760.00;5115627;27;45309;-81
2023/07/02 09:48:21;;;;;;;;;22.75;19.25;;;;;22.76;43.05;100753.56;5104282;27;45446;-88
2023/07/02 09:50:49;;;;;;;;;18.00;15.00;;;;;22.45;42.63;100720.69;5102173;27;45488;-83
2023/07/02 09:53:14;;;;;;;;;19.33;18.33;;;;;22.45;43.71;100765.91;5113710;27;45444;-88
2023/07/02 09:55:43;;;;;;;;;16.00;15.00;;;;;21.98;43.99;100714.69;5109310;27;45459;-81
2023/07/02 09:58:08;;;;;;;;;24.00;21.75;;;;;22.13;44.27;100756.50;5113484;27;45313;-81
2023/07/02 10:00:34;;;;;;;;;19.33;18.00;;;;;21.92;44.28;100737.84;5098093;27;45314;-80
2023/07/02 10:03:00;;;;;;;;;21.33;18.33;;;;;21.94;44.59;100757.50;5098887;27;45598;-83
2023/07/02 10:05:29;;;;;;;;;28.67;23.67;;;;;22.02;44.94;100767.56;5079223;27;45385;-82
2023/07/02 10:08:11;;;;;;;;;25.00;23.67;;;;;21.92;44.85;100737.00;5119574;27;48181;-83
2023/07/02 10:10:36;;;;;;;;;24.33;17.00;;;;;22.37;44.25;100774.81;5105685;27;45534;-87
2023/07/02 10:13:02;;;;;;;;;19.50;17.25;;;;;22.33;44.08;100711.09;5096143;27;46969;-85
2023/07/02 10:15:28;;;;;;;;;19.25;17.25;;;;;22.55;43.77;100728.72;5079908;27;45427;-89
2023/07/02 10:17:58;;;;;;;;;22.00;20.75;;;;;22.49;43.75;100734.75;5102635;27;46427;-83
2023/07/02 10:20:37;;;;;;;;;24.33;20.00;;;;;22.65;43.91;100756.53;5095617;27;45812;-84
2023/07/02 10:23:05;;;;;;;;;18.67;15.33;;;;;22.56;43.42;100746.66;5085376;27;45477;-81
2023/07/02 10:25:38;;;;;;;;;22.00;17.25;;;;;22.61;43.75;100757.88;5097875;27;45355;-83
2023/07/02 10:28:26;;;;;;;;;16.33;15.00;;;;;22.35;43.50;100701.81;5104717;27;46165;-83
2023/07/02 10:30:53;;;;;;;;;11.67;11.67;;;;;22.65;43.97;100757.38;5103941;27;45977;-84
2023/07/02 10:33:19;;;;;;;;;20.67;17.33;;;;;22.35;43.42;100701.81;5110272;27;45378;-84
2023/07/02 10:35:48;;;;;;;;;24.25;20.00;;;;;22.73;43.99;100751.16;5113414;27;45337;-81
2023/07/02 10:38:15;;;;;;;;;24.00;19.33;;;;;22.82;43.52;100738.53;5110557;27;46303;-85
2023/07/02 10:40:42;;;;;;;;;24.33;19.33;;;;;23.06;43.29;100732.41;5135524;27;45346;-85
2023/07/02 10:43:07;;;;;;;;;19.00;18.00;;;;;23.33;42.41;100721.28;5122560;27;45371;-83
2023/07/02 10:45:34;;;;;;;;;22.33;19.33;;;;;23.25;42.36;100737.53;5115097;27;45267;-82
2023/07/02 10:48:04;;;;;;;;;17.33;15.67;;;;;23.21;43.10;100747.88;5119302;27;46090;-82
2023/07/02 10:50:31;;;;;;;;;21.33;19.00;;;;;23.26;42.55;100736.53;5100359;27;45404;-83
2023/07/02 10:52:57;;;;;;;;;23.50;19.00;;;;;23.05;43.20;100671.00;5121819;27;45323;-85
2023/07/02 10:55:24;;;;;;;;;18.75;17.25;;;;;23.38;41.63;100716.22;5106023;27;45316;-85
2023/07/02 10:58:03;;;;;;;;;19.00;18.00;;;;;23.17;41.40;100658.81;5115241;27;46481;-84
2023/07/02 11:00:31;;;;;;;;;23.00;17.25;;;;;23.52;41.18;100733.72;5107057;27;45349;-86
2023/07/02 11:02:57;;;;;;;;;19.67;17.67;;;;;23.09;41.37;100672.38;5105541;27;45404;-85
2023/07/02 11:05:23;;;;;;;;;19.25;14.50;;;;;23.51;41.23;100738.28;5103405;27;45374;-87